Time;durP1;ratioP1;P1;durP2;ratioP2;P2;SDS_P1;SDS_P2;PMS_P1;PMS_P2;Temp;Humidity;BMP_temperature;BMP_pressure;BME280_temperature;BME280_humidity;BME280_pressure;Samples;Min_cycle;Max_cycle;Signal;HPM_P1;HPM_P2
2024/02/07 00:01:12;;;;;;;3.43;2.70;;;;;;;11.62;50.19;98533.38;6994928;28;20355;-79
2024/02/07 00:04:35;;;;;;;4.03;2.80;;;;;;;11.62;50.26;98519.88;6991678;28;20205;-80
2024/02/07 00:07:57;;;;;;;4.00;2.70;;;;;;;11.85;49.39;98538.19;6995410;28;20330;-79
2024/02/07 00:11:18;;;;;;;4.57;2.83;;;;;;;11.76;49.80;98528.72;6996374;28;20265;-80
2024/02/07 00:14:40;;;;;;;2.93;2.53;;;;;;;11.50;50.20;98508.09;6995799;28;20296;-81
2024/02/07 00:18:01;;;;;;;4.53;2.90;;;;;;;11.75;49.84;98514.38;6996765;28;20678;-80
2024/02/07 00:21:24;;;;;;;3.90;3.20;;;;;;;11.44;50.90;98508.97;6996763;28;20673;-79
2024/02/07 00:24:46;;;;;;;3.80;2.97;;;;;;;11.85;49.19;98498.50;6993018;28;20763;-80
2024/02/07 00:28:09;;;;;;;3.47;2.70;;;;;;;11.77;49.98;98509.59;6998879;28;20228;-80
2024/02/07 00:31:31;;;;;;;3.40;2.70;;;;;;;11.48;49.98;98485.91;6999228;28;20330;-80
2024/02/07 00:34:52;;;;;;;5.57;3.10;;;;;;;11.84;49.48;98501.44;6998061;28;20567;-79
2024/02/07 00:38:15;;;;;;;3.60;2.97;;;;;;;11.88;49.19;98479.19;6999221;28;20289;-79
2024/02/07 00:41:37;;;;;;;4.47;2.63;;;;;;;11.92;49.39;98487.66;7001059;28;20245;-80
2024/02/07 00:44:58;;;;;;;4.00;2.87;;;;;;;12.09;48.94;98481.47;7001341;28;20206;-80
2024/02/07 00:48:28;;;;;;;4.27;3.43;;;;;;;12.14;48.88;98459.16;6988417;28;20256;-81
2024/02/07 00:51:50;;;;;;;4.27;2.80;;;;;;;12.02;49.18;98485.28;7000458;28;20236;-80
2024/02/07 00:55:13;;;;;;;4.20;3.20;;;;;;;12.19;48.47;98487.19;6997307;28;20231;-80
2024/02/07 00:58:35;;;;;;;3.47;2.90;;;;;;;12.02;49.09;98486.13;6986817;28;20239;-80
2024/02/07 01:01:56;;;;;;;3.53;2.50;;;;;;;12.01;48.91;98484.47;6977197;28;20229;-80
2024/02/07 01:05:18;;;;;;;4.27;3.33;;;;;;;11.83;49.69;98464.66;6973295;28;20206;-80
2024/02/07 01:08:40;;;;;;;2.87;2.57;;;;;;;11.80;49.67;98463.22;6991908;28;20245;-81
2024/02/07 01:12:03;;;;;;;3.37;2.90;;;;;;;11.60;50.57;98475.25;6999626;28;20312;-80
2024/02/07 01:15:25;;;;;;;2.90;2.70;;;;;;;11.71;49.95;98452.94;7004945;28;20201;-80
2024/02/07 01:18:46;;;;;;;4.57;2.73;;;;;;;11.98;49.44;98457.06;7011674;28;21692;-80
2024/02/07 01:22:08;;;;;;;3.10;2.80;;;;;;;11.75;50.10;98438.75;7011735;28;20237;-80
2024/02/07 01:25:29;;;;;;;3.13;2.60;;;;;;;11.82;50.32;98450.34;7007808;28;20194;-79
2024/02/07 01:28:52;;;;;;;4.40;3.10;;;;;;;11.88;49.93;98435.97;6999217;28;20707;-81
2024/02/07 01:32:14;;;;;;;3.97;2.80;;;;;;;12.13;49.75;98446.72;6999218;28;20253;-80
2024/02/07 01:35:39;;;;;;;5.70;3.03;;;;;;;12.12;49.83;98447.78;6998690;28;20660;-80
2024/02/07 01:39:04;;;;;;;6.47;3.07;;;;;;;11.35;51.62;98432.03;7000557;28;20193;-80
2024/02/07 01:42:31;;;;;;;3.47;2.60;;;;;;;11.43;51.36;98426.34;6982944;28;20272;-80
2024/02/07 01:45:54;;;;;;;3.17;2.80;;;;;;;11.74;50.72;98428.19;6972979;28;20270;-81
2024/02/07 01:49:16;;;;;;;5.97;3.43;;;;;;;11.50;51.49;98427.09;6972085;28;20249;-81
2024/02/07 01:52:39;;;;;;;4.23;3.20;;;;;;;11.60;51.02;98378.03;6985015;28;20217;-80
2024/02/07 01:56:02;;;;;;;3.43;3.10;;;;;;;11.91;50.66;98405.78;6998450;28;20205;-80
2024/02/07 01:59:24;;;;;;;4.80;2.97;;;;;;;11.83;50.77;98395.28;6999078;28;20261;-81
2024/02/07 02:02:48;;;;;;;4.27;2.90;;;;;;;11.88;50.63;98397.31;6997343;28;20209;-81
2024/02/07 02:06:10;;;;;;;3.43;2.80;;;;;;;11.88;50.71;98391.91;7000303;28;20678;-81
2024/02/07 02:09:32;;;;;;;6.17;2.90;;;;;;;11.86;50.52;98396.72;6999710;28;20226;-81
2024/02/07 02:12:53;;;;;;;3.63;2.57;;;;;;;12.02;50.63;98390.69;6999760;28;20233;-80
2024/02/07 02:16:15;;;;;;;4.73;3.03;;;;;;;11.98;50.33;98378.72;6990771;28;20611;-81
2024/02/07 02:19:38;;;;;;;3.30;3.00;;;;;;;12.00;50.07;98363.94;6990303;28;20307;-80
2024/02/07 02:23:08;;;;;;;6.00;3.17;;;;;;;11.78;50.66;98364.56;6998675;28;20228;-80
2024/02/07 02:26:38;;;;;;;3.10;2.80;;;;;;;12.01;50.16;98364.75;6986293;28;20190;-81
2024/02/07 02:30:09;;;;;;;3.23;2.63;;;;;;;11.91;50.67;98364.44;6999148;28;20311;-81
2024/02/07 02:33:32;;;;;;;7.17;3.33;;;;;;;11.83;51.13;98375.53;6987092;28;20197;-81
2024/02/07 02:36:53;;;;;;;6.20;3.00;;;;;;;11.93;50.60;98367.75;6982797;28;20247;-81
2024/02/07 02:40:15;;;;;;;7.20;2.90;;;;;;;11.78;51.08;98351.06;6971491;28;20875;-81
2024/02/07 02:43:39;;;;;;;5.73;3.30;;;;;;;11.89;50.57;98339.53;6989773;28;20204;-81
2024/02/07 02:47:02;;;;;;;3.20;2.67;;;;;;;11.43;51.37;98336.44;6998565;28;20225;-80
2024/02/07 02:50:25;;;;;;;3.10;2.80;;;;;;;11.65;51.09;98365.53;6999859;28;20222;-80
2024/02/07 02:53:48;;;;;;;3.93;3.07;;;;;;;11.62;51.73;98340.88;6998464;28;20296;-80
2024/02/07 02:57:10;;;;;;;3.87;2.90;;;;;;;11.61;51.71;98339.19;6998160;28;20204;-80
2024/02/07 03:00:31;;;;;;;5.40;2.90;;;;;;;11.44;52.12;98322.72;6984620;28;20700;-80
2024/02/07 03:03:54;;;;;;;5.40;3.20;;;;;;;11.89;50.95;98328.72;6975870;28;20206;-80
2024/02/07 03:10:55;;;;;;;3.30;2.97;;;;;;;11.45;51.93;98294.66;6998591;28;20228;-80
2024/02/07 03:14:17;;;;;;;4.77;2.93;;;;;;;11.86;51.17;98305.69;6998886;28;20346;-79
2024/02/07 03:17:40;;;;;;;4.27;3.73;;;;;;;11.95;50.59;98290.84;6998765;28;20346;-79
2024/02/07 03:21:06;;;;;;;4.53;2.97;;;;;;;12.13;50.31;98298.94;7000263;28;20238;-79
2024/02/07 03:24:28;;;;;;;5.37;3.27;;;;;;;12.00;49.62;98233.41;7004156;28;20200;-80
2024/02/07 03:27:53;;;;;;;3.63;2.93;;;;;;;12.26;49.51;98279.81;7004743;28;20712;-80
2024/02/07 03:31:14;;;;;;;5.90;2.93;;;;;;;12.46;49.52;98301.19;7001294;28;20209;-80
2024/02/07 03:34:36;;;;;;;3.00;2.70;;;;;;;12.44;49.65;98300.56;6984144;28;20198;-80
2024/02/07 03:37:59;;;;;;;4.30;3.17;;;;;;;12.62;48.97;98284.31;6995288;28;20618;-80
2024/02/07 03:41:21;;;;;;;3.50;3.20;;;;;;;12.50;49.47;98295.09;6995922;28;20719;-80
2024/02/07 03:44:46;;;;;;;3.37;3.07;;;;;;;12.34;49.42;98262.47;6996579;28;20351;-80
2024/02/07 03:48:13;;;;;;;3.80;3.10;;;;;;;12.46;49.75;98293.88;6995212;28;20229;-79
2024/02/07 03:51:35;;;;;;;5.60;3.27;;;;;;;12.57;49.85;98268.78;6982748;28;20218;-81
2024/02/07 03:54:58;;;;;;;5.50;3.20;;;;;;;12.39;50.17;98271.53;6978102;28;20574;-80
2024/02/07 03:58:21;;;;;;;4.33;2.90;;;;;;;12.22;50.86;98272.41;6995460;28;20359;-80
2024/02/07 04:01:45;;;;;;;6.77;3.57;;;;;;;12.50;50.27;98276.16;7000762;28;20225;-80
2024/02/07 04:05:08;;;;;;;7.00;3.50;;;;;;;12.50;50.21;98270.75;6997267;28;20205;-80
2024/02/07 04:08:30;;;;;;;4.63;3.13;;;;;;;12.46;50.12;98249.81;7001894;28;20595;-80
2024/02/07 05:17:39;;;;;;;4.27;2.70;;;;;;;12.51;52.52;98204.00;6999981;28;20198;-80
2024/02/07 05:21:04;;;;;;;4.87;2.93;;;;;;;12.55;51.92;98160.03;6993895;28;20226;-80
2024/02/07 05:24:27;;;;;;;3.20;2.50;;;;;;;12.67;51.86;98176.25;7001232;28;20335;-82
2024/02/07 05:27:49;;;;;;;4.37;2.90;;;;;;;12.85;51.09;98173.44;7001200;28;20225;-80
2024/02/07 05:31:14;;;;;;;3.20;2.90;;;;;;;12.45;51.13;98108.41;6999338;28;20222;-80
2024/02/07 05:34:36;;;;;;;4.93;3.27;;;;;;;12.51;52.25;98168.84;7001173;28;20636;-80
2024/02/07 05:37:59;;;;;;;7.23;3.00;;;;;;;13.19;50.65;98164.53;6999269;28;20258;-80
2024/02/07 05:41:24;;;;;;;3.20;2.90;;;;;;;12.70;51.59;98165.78;6991353;28;20643;-81
2024/02/07 05:44:46;;;;;;;4.43;2.93;;;;;;;12.64;51.94;98152.41;6995929;28;20292;-80
2024/02/07 05:48:08;;;;;;;3.30;3.00;;;;;;;12.78;51.58;98162.75;7000183;28;20363;-80
2024/02/07 05:51:30;;;;;;;3.13;2.83;;;;;;;13.24;50.34;98146.53;7000455;28;20292;-80
2024/02/07 05:54:51;;;;;;;3.80;3.10;;;;;;;12.96;51.11;98164.53;6986159;28;20260;-80
2024/02/07 05:58:14;;;;;;;4.67;3.30;;;;;;;13.11;50.77;98168.41;6972711;28;20206;-80
2024/02/07 06:01:36;;;;;;;6.53;3.10;;;;;;;12.92;50.98;98172.28;6995547;28;20253;-79
2024/02/07 06:05:03;;;;;;;2.77;2.40;;;;;;;13.07;50.90;98167.25;6980725;28;20201;-80
2024/02/07 06:08:24;;;;;;;3.27;2.90;;;;;;;13.09;50.76;98159.72;6999877;28;20210;-80
2024/02/07 06:11:51;;;;;;;3.17;2.87;;;;;;;12.99;51.18;98145.16;7001054;28;20767;-80
2024/02/07 06:15:26;;;;;;;4.33;2.70;;;;;;;12.54;51.80;98136.75;7000228;28;20214;-80
2024/02/07 06:18:48;;;;;;;2.97;2.70;;;;;;;12.55;52.18;98151.06;7003237;28;20727;-80
2024/02/07 06:22:10;;;;;;;5.77;2.57;;;;;;;12.64;52.09;98147.00;7003190;28;20249;-79
2024/02/07 06:25:31;;;;;;;4.27;2.87;;;;;;;12.53;51.83;98108.06;7000296;28;20232;-81
2024/02/07 06:28:53;;;;;;;4.17;2.60;;;;;;;12.82;51.63;98130.66;6999120;28;20226;-80
2024/02/07 06:32:16;;;;;;;3.30;2.73;;;;;;;12.78;51.65;98108.66;6998752;28;20380;-81
2024/02/07 06:35:37;;;;;;;5.77;3.43;;;;;;;12.48;52.56;98113.34;6997666;28;20237;-78
2024/02/07 06:38:59;;;;;;;3.03;2.67;;;;;;;12.82;51.48;98106.31;6997057;28;20343;-81
2024/02/07 06:42:20;;;;;;;6.27;3.63;;;;;;;12.43;52.58;98101.56;6970919;28;20238;-80
2024/02/07 06:45:42;;;;;;;4.03;3.17;;;;;;;12.72;52.25;98111.47;6997879;28;20240;-80
2024/02/07 06:49:05;;;;;;;5.03;3.33;;;;;;;12.71;52.12;98116.06;6999772;28;20275;-80
2024/02/07 06:52:26;;;;;;;4.80;3.00;;;;;;;12.78;51.84;98116.78;6999404;28;20229;-81
2024/02/07 06:55:48;;;;;;;5.17;3.23;;;;;;;13.33;50.64;98109.09;6998055;28;20284;-81
2024/02/07 06:59:12;;;;;;;3.73;2.80;;;;;;;13.07;51.24;98125.84;6976485;28;20212;-81
2024/02/07 07:02:33;;;;;;;4.90;3.60;;;;;;;12.91;51.54;98127.34;6997728;28;20216;-81
2024/02/07 07:05:57;;;;;;;4.33;3.07;;;;;;;12.62;52.19;98122.88;6998708;28;20258;-81
2024/02/07 07:09:19;;;;;;;5.40;3.47;;;;;;;13.21;50.88;98119.94;6995519;28;20688;-80
2024/02/07 07:12:40;;;;;;;6.70;2.90;;;;;;;13.48;50.03;98120.22;6992162;28;20229;-82
2024/02/07 07:16:02;;;;;;;4.87;3.40;;;;;;;13.51;49.86;98117.03;6990321;28;20351;-81
2024/02/07 07:19:23;;;;;;;4.50;3.37;;;;;;;13.40;50.05;98126.00;6993868;28;20264;-81
2024/02/07 07:22:46;;;;;;;3.87;2.90;;;;;;;13.35;50.36;98104.25;6997665;28;20198;-84
2024/02/07 07:26:08;;;;;;;6.73;3.90;;;;;;;13.77;50.25;98122.72;6997000;28;20294;-81
2024/02/07 07:29:30;;;;;;;7.40;4.93;;;;;;;13.69;49.50;98135.81;6995427;28;20233;-81
2024/02/07 07:32:51;;;;;;;4.73;3.10;;;;;;;13.46;49.71;98119.66;6998577;28;20283;-81
2024/02/07 07:36:16;;;;;;;3.83;3.00;;;;;;;13.57;49.37;98105.25;7003407;28;20194;-81
2024/02/07 07:39:39;;;;;;;4.50;3.10;;;;;;;13.62;49.73;98133.25;7005180;28;20277;-81
2024/02/07 07:43:00;;;;;;;5.83;3.00;;;;;;;13.88;48.46;98118.31;6992887;28;20210;-84
2024/02/07 07:46:22;;;;;;;6.60;3.20;;;;;;;13.29;49.83;98103.31;6999261;28;20296;-82
2024/02/07 07:49:43;;;;;;;4.30;2.90;;;;;;;13.49;49.32;98100.19;7002720;28;20217;-81
2024/02/07 07:53:05;;;;;;;4.40;3.37;;;;;;;13.86;48.44;98102.28;7002081;28;20206;-80
2024/02/07 07:56:31;;;;;;;4.70;3.07;;;;;;;13.98;48.16;98119.31;6996146;28;20340;-81
2024/02/07 07:59:54;;;;;;;5.63;3.20;;;;;;;13.47;49.68;98126.69;6998729;28;20226;-80
2024/02/07 08:03:16;;;;;;;3.70;3.30;;;;;;;13.64;48.98;98106.72;6991110;28;20337;-81
2024/02/07 08:06:39;;;;;;;5.37;3.30;;;;;;;13.66;48.90;98104.63;7002434;28;20241;-80
2024/02/07 08:10:00;;;;;;;5.77;3.00;;;;;;;13.70;48.81;98081.38;7001412;28;20233;-81
2024/02/07 08:13:23;;;;;;;4.03;3.23;;;;;;;13.69;48.71;98106.03;7001811;28;20349;-80
2024/02/07 08:16:46;;;;;;;7.93;3.03;;;;;;;13.95;48.22;98084.59;6997963;28;20686;-81
2024/02/07 08:20:08;;;;;;;4.03;3.10;;;;;;;14.40;47.28;98100.84;7001176;28;20733;-80
2024/02/07 08:23:30;;;;;;;4.57;2.97;;;;;;;14.02;47.77;98101.50;7000989;28;20606;-81
2024/02/07 08:26:51;;;;;;;3.67;2.77;;;;;;;14.43;46.89;98092.19;7000527;28;20217;-80
2024/02/07 08:30:15;;;;;;;4.17;3.10;;;;;;;13.86;48.34;98101.47;6997593;28;20226;-80
2024/02/07 08:33:37;;;;;;;5.70;3.17;;;;;;;13.80;48.72;98105.16;6999978;28;20728;-81
2024/02/07 08:36:58;;;;;;;3.37;2.80;;;;;;;13.54;49.36;98087.59;6999850;28;20620;-80
2024/02/07 08:40:20;;;;;;;5.20;2.97;;;;;;;14.34;47.74;98104.53;6994914;28;20368;-80
2024/02/07 08:43:41;;;;;;;6.90;3.00;;;;;;;13.76;48.65;98071.47;6984685;28;20725;-80
2024/02/07 08:47:04;;;;;;;3.77;2.70;;;;;;;14.19;47.72;98069.03;7000400;28;20341;-80
2024/02/07 08:50:26;;;;;;;5.33;2.80;;;;;;;13.50;49.35;98086.41;7001174;28;20333;-81
2024/02/07 08:53:48;;;;;;;5.00;3.03;;;;;;;13.60;49.76;98072.25;7000996;28;20233;-80
2024/02/07 08:57:09;;;;;;;4.10;2.87;;;;;;;14.27;48.09;98083.00;6999625;28;20332;-80
2024/02/07 09:00:38;;;;;;;3.73;2.70;;;;;;;13.84;48.89;98052.94;7000987;28;20303;-79
2024/02/07 09:04:01;;;;;;;5.00;3.20;;;;;;;14.00;49.00;98081.13;7000375;28;20206;-80
2024/02/07 09:07:22;;;;;;;3.67;2.90;;;;;;;14.20;48.31;98070.66;6999733;28;20214;-80
2024/02/07 09:10:45;;;;;;;6.83;3.30;;;;;;;14.22;48.42;98068.53;6994632;28;20311;-79
2024/02/07 09:14:06;;;;;;;5.23;3.40;;;;;;;14.64;47.52;98059.72;6995022;28;20239;-80
2024/02/07 09:17:28;;;;;;;5.77;2.90;;;;;;;14.28;48.58;98073.78;6999736;28;20233;-80
2024/02/07 09:20:51;;;;;;;4.50;2.80;;;;;;;14.27;48.39;98066.72;7000533;28;20261;-80
2024/02/07 09:24:12;;;;;;;5.07;3.37;;;;;;;14.12;48.48;98066.47;7000852;28;20291;-80
2024/02/07 09:27:34;;;;;;;4.73;3.30;;;;;;;14.23;49.14;98078.31;6988856;28;20255;-80
2024/02/07 09:30:55;;;;;;;4.87;3.67;;;;;;;13.91;49.79;98055.47;7000139;28;20322;-80
2024/02/07 09:34:17;;;;;;;4.70;3.30;;;;;;;13.87;49.83;98051.63;7000939;28;20232;-80
2024/02/07 09:37:40;;;;;;;4.93;3.20;;;;;;;14.37;48.52;98058.75;7000704;28;20232;-81
2024/02/07 09:41:03;;;;;;;6.60;3.30;;;;;;;14.90;47.71;98047.31;7001217;28;20329;-80
2024/02/07 09:44:27;;;;;;;5.17;3.27;;;;;;;14.45;48.82;98058.34;6988334;28;20211;-80
2024/02/07 09:47:55;;;;;;;8.33;2.90;;;;;;;14.69;48.53;98051.66;7000793;28;20211;-80
2024/02/07 09:51:16;;;;;;;6.47;3.23;;;;;;;14.21;48.89;98054.16;7001332;28;20224;-80
2024/02/07 09:54:40;;;;;;;3.50;3.20;;;;;;;14.20;49.16;98047.09;7001315;28;20208;-80
2024/02/07 09:58:02;;;;;;;5.33;3.57;;;;;;;14.08;49.18;98053.63;6999167;28;20212;-80
2024/02/07 10:01:27;;;;;;;4.83;3.20;;;;;;;14.31;49.14;98059.75;6996109;28;20279;-81
2024/02/07 10:04:52;;;;;;;4.47;2.80;;;;;;;13.97;49.65;98039.06;6999938;28;20634;-81
2024/02/07 10:08:13;;;;;;;4.80;2.97;;;;;;;14.43;48.55;98046.94;6999723;28;20579;-81
2024/02/07 10:11:37;;;;;;;3.57;3.13;;;;;;;14.60;48.67;98058.59;6988570;28;20220;-80
2024/02/07 10:15:00;;;;;;;3.67;3.00;;;;;;;14.58;48.57;98040.91;6982482;28;20234;-81
2024/02/07 10:18:21;;;;;;;5.80;3.30;;;;;;;14.91;47.57;98044.38;6991103;28;20749;-81
2024/02/07 10:21:45;;;;;;;4.97;3.07;;;;;;;14.96;47.57;98039.00;6986568;28;20303;-81
2024/02/07 10:25:11;;;;;;;4.47;3.17;;;;;;;14.71;47.89;98043.25;6998840;28;20214;-81
2024/02/07 10:28:34;;;;;;;4.40;3.07;;;;;;;14.93;47.67;98031.34;6999050;28;20244;-80
2024/02/07 10:31:55;;;;;;;3.40;2.70;;;;;;;14.85;47.43;98011.97;7001002;28;20706;-80
2024/02/07 10:35:18;;;;;;;3.47;2.80;;;;;;;14.36;48.72;98034.59;6995624;28;20262;-80
2024/02/07 10:38:39;;;;;;;6.10;3.00;;;;;;;14.60;48.24;98026.03;7000152;28;20234;-80
2024/02/07 10:42:07;;;;;;;6.70;2.93;;;;;;;14.94;47.38;98022.16;7001273;28;20439;-80
2024/02/07 10:45:31;;;;;;;5.07;2.83;;;;;;;14.58;48.84;98032.78;6997940;28;20270;-81
2024/02/07 10:48:54;;;;;;;4.50;2.23;;;;;;;15.29;46.85;98028.00;7000203;28;20238;-80
2024/02/07 10:52:16;;;;;;;4.03;2.43;;;;;;;14.97;47.57;98023.53;7000766;28;20291;-80
2024/02/07 10:55:37;;;;;;;2.60;2.30;;;;;;;14.42;48.63;98023.59;7000911;28;20822;-80
2024/02/07 10:58:59;;;;;;;3.37;2.60;;;;;;;14.78;47.66;98009.47;6998398;28;20241;-81
2024/02/07 11:02:22;;;;;;;3.40;2.23;;;;;;;14.38;48.82;98019.72;7003787;28;20219;-80
2024/02/07 11:05:44;;;;;;;4.70;2.67;;;;;;;14.64;48.16;97997.31;7008078;28;20222;-80
2024/02/07 11:09:07;;;;;;;4.17;2.30;;;;;;;14.59;48.89;98016.25;6999267;28;20315;-81
2024/02/07 11:12:29;;;;;;;2.80;2.50;;;;;;;14.64;48.62;97993.78;6973438;28;20208;-81
2024/02/07 11:15:51;;;;;;;5.40;2.07;;;;;;;14.78;48.58;97995.06;6995406;28;20217;-81
2024/02/07 11:19:14;;;;;;;2.53;2.33;;;;;;;14.33;49.79;97989.00;6996242;28;20280;-80
2024/02/07 11:22:38;;;;;;;4.13;2.50;;;;;;;14.86;48.10;97994.66;6996543;28;20252;-79
2024/02/07 11:26:01;;;;;;;3.50;2.50;;;;;;;14.48;48.46;97952.06;6996424;28;20559;-80
2024/02/07 11:29:23;;;;;;;3.87;2.50;;;;;;;15.02;47.97;97970.13;6996593;28;20448;-79
2024/02/07 11:32:47;;;;;;;2.80;2.60;;;;;;;14.87;48.14;97963.72;6996913;28;20202;-79
2024/02/07 11:36:16;;;;;;;4.37;2.67;;;;;;;15.11;47.63;97975.94;6996772;28;20287;-81
2024/02/07 11:39:39;;;;;;;2.70;2.50;;;;;;;14.38;49.36;97964.66;6969047;28;20226;-79
2024/02/07 11:43:02;;;;;;;4.97;2.70;;;;;;;14.91;48.11;97943.13;6979334;28;20207;-79
2024/02/07 11:46:24;;;;;;;4.10;2.70;;;;;;;15.36;47.60;97951.81;6994917;28;20210;-80
2024/02/07 11:49:53;;;;;;;4.07;2.20;;;;;;;15.46;46.76;97938.34;6997246;28;20231;-80
2024/02/07 11:53:27;;;;;;;2.70;2.40;;;;;;;15.58;46.62;97944.44;6997605;28;20368;-80
2024/02/07 11:56:55;;;;;;;3.70;2.73;;;;;;;14.54;49.30;97932.09;6997195;28;20204;-80
2024/02/07 12:00:18;;;;;;;2.80;2.20;;;;;;;15.33;47.57;97931.41;6986841;28;20367;-80
2024/02/07 12:03:39;;;;;;;2.23;1.93;;;;;;;15.53;46.28;97928.91;6997814;28;20215;-80
2024/02/07 12:07:02;;;;;;;2.63;2.30;;;;;;;15.28;47.44;97939.47;6996761;28;20278;-79
2024/02/07 12:10:25;;;;;;;3.53;2.80;;;;;;;15.06;48.01;97918.88;6987611;28;21038;-81
2024/02/07 12:13:46;;;;;;;2.57;2.20;;;;;;;15.33;47.04;97922.47;6969562;28;20655;-79
2024/02/07 12:17:08;;;;;;;4.60;2.50;;;;;;;15.71;46.29;97909.50;6994046;28;20242;-80
2024/02/07 12:20:30;;;;;;;2.83;2.40;;;;;;;15.43;46.46;97900.81;6998419;28;20663;-80
2024/02/07 12:23:51;;;;;;;2.83;2.30;;;;;;;15.79;46.33;97892.72;7001503;28;20271;-80
2024/02/07 12:27:15;;;;;;;5.67;2.40;;;;;;;16.02;45.50;97896.94;7000804;28;20203;-79
2024/02/07 12:30:37;;;;;;;2.90;2.20;;;;;;;15.74;45.65;97881.00;7001260;28;20361;-80
2024/02/07 12:33:59;;;;;;;2.20;2.00;;;;;;;15.49;46.55;97878.06;7002508;28;20695;-80
2024/02/07 12:37:21;;;;;;;2.43;2.20;;;;;;;15.43;46.18;97898.94;6977330;28;20220;-80
2024/02/07 12:40:42;;;;;;;2.20;1.90;;;;;;;15.39;46.45;97886.94;6976152;28;20705;-80
2024/02/07 12:44:08;;;;;;;4.03;1.80;;;;;;;15.35;46.40;97882.28;6995353;28;20215;-81
2024/02/07 12:47:30;;;;;;;2.97;2.20;;;;;;;14.97;47.50;97899.50;6996351;28;20258;-82
2024/02/07 12:50:54;;;;;;;2.40;1.90;;;;;;;15.38;46.58;97873.59;6986869;28;20980;-85
2024/02/07 12:54:15;;;;;;;2.17;1.90;;;;;;;15.70;47.01;97879.88;7002223;28;20294;-81
2024/02/07 12:57:37;;;;;;;2.43;1.80;;;;;;;15.76;46.75;97870.69;7000430;28;20293;-83
2024/02/07 13:01:04;;;;;;;1.90;1.77;;;;;;;15.66;47.25;97862.44;6998082;28;20254;-82
2024/02/07 13:04:26;;;;;;;4.10;2.27;;;;;;;16.09;45.04;97860.31;7000863;28;20218;-82
2024/02/07 13:07:49;;;;;;;2.43;2.07;;;;;;;15.67;46.87;97875.78;7000635;28;20239;-82
2024/02/07 13:11:11;;;;;;;3.07;2.10;;;;;;;15.80;46.93;97872.59;7000917;28;20231;-83
2024/02/07 13:14:32;;;;;;;2.03;1.90;;;;;;;16.20;45.23;97872.88;7007734;28;20292;-81
2024/02/07 13:17:55;;;;;;;3.40;2.00;;;;;;;15.64;46.34;97862.69;7000728;28;20212;-81
2024/02/07 13:21:16;;;;;;;2.00;1.90;;;;;;;15.36;46.78;97862.19;6999348;28;20703;-80
2024/02/07 13:24:38;;;;;;;2.33;1.90;;;;;;;15.75;46.10;97866.31;7000481;28;20212;-80
2024/02/07 13:27:59;;;;;;;1.80;1.70;;;;;;;15.00;47.39;97857.47;6997545;28;20651;-81
2024/02/07 13:31:21;;;;;;;2.20;2.00;;;;;;;15.11;47.52;97856.50;7000118;28;20368;-79
2024/02/07 13:34:45;;;;;;;4.43;2.50;;;;;;;15.22;47.39;97853.59;7001751;28;20285;-81
2024/02/07 13:38:07;;;;;;;2.97;2.00;;;;;;;15.01;47.96;97859.09;6996382;28;20295;-80
2024/02/07 13:41:28;;;;;;;5.37;2.20;;;;;;;15.27;47.71;97817.56;6999617;28;20235;-80
2024/02/07 13:44:50;;;;;;;2.60;2.40;;;;;;;15.19;47.91;97842.44;7000884;28;20272;-80
2024/02/07 13:48:11;;;;;;;2.87;2.07;;;;;;;15.65;47.29;97847.22;6999426;28;20349;-80
2024/02/07 13:51:35;;;;;;;2.10;2.00;;;;;;;15.20;48.20;97833.22;6999691;28;20231;-80
2024/02/07 13:54:56;;;;;;;2.43;2.20;;;;;;;15.19;48.59;97831.56;6993222;28;20305;-80
2024/02/07 13:58:18;;;;;;;2.27;2.07;;;;;;;15.25;48.70;97839.53;6990525;28;20209;-80
2024/02/07 14:01:41;;;;;;;2.53;2.33;;;;;;;15.34;47.71;97829.03;6997366;28;20219;-81
2024/02/07 14:05:02;;;;;;;3.13;2.27;;;;;;;15.08;48.19;97835.28;7000635;28;20217;-82
2024/02/07 14:08:25;;;;;;;2.47;2.10;;;;;;;15.01;48.37;97829.25;6994817;28;20295;-81
2024/02/07 14:11:47;;;;;;;2.60;2.40;;;;;;;15.57;47.20;97801.53;6998355;28;20704;-81
2024/02/07 14:15:11;;;;;;;2.30;2.10;;;;;;;15.48;47.20;97831.06;7005025;28;20211;-80
2024/02/07 14:18:32;;;;;;;2.10;2.00;;;;;;;15.13;47.42;97828.00;7011427;28;20208;-80
2024/02/07 14:21:54;;;;;;;3.33;2.73;;;;;;;15.10;47.86;97823.09;7006174;28;20224;-81
2024/02/07 14:25:17;;;;;;;3.00;2.47;;;;;;;15.57;46.41;97820.53;7004089;28;20246;-81
2024/02/07 14:28:38;;;;;;;2.23;2.03;;;;;;;15.35;47.34;97819.81;6993287;28;20284;-82
2024/02/07 14:32:01;;;;;;;2.30;2.13;;;;;;;15.37;47.75;97813.03;6995747;28;20319;-81
2024/02/07 14:35:22;;;;;;;4.07;2.53;;;;;;;15.79;46.82;97804.91;7019696;28;20215;-82
2024/02/07 14:38:44;;;;;;;5.50;1.93;;;;;;;15.73;46.85;97803.25;7012157;28;20207;-82
2024/02/07 14:42:07;;;;;;;2.30;2.07;;;;;;;14.96;48.25;97800.16;7014474;28;20234;-82
2024/02/07 14:45:28;;;;;;;2.83;2.30;;;;;;;15.15;48.25;97795.97;7011750;28;20688;-82
2024/02/07 14:48:50;;;;;;;4.80;2.33;;;;;;;15.46;47.47;97802.53;7000090;28;20220;-81
2024/02/07 14:52:11;;;;;;;3.33;2.33;;;;;;;14.91;48.38;97813.69;7000640;28;20232;-80
2024/02/07 14:55:33;;;;;;;3.00;2.23;;;;;;;15.07;47.71;97809.19;7000848;28;20289;-81
2024/02/07 14:58:56;;;;;;;2.80;2.57;;;;;;;14.98;48.55;97794.47;7000343;28;20204;-81
2024/02/07 15:02:17;;;;;;;2.37;2.00;;;;;;;14.76;48.56;97775.50;7016206;28;20308;-81
2024/02/07 15:05:39;;;;;;;3.27;1.90;;;;;;;14.75;48.51;97779.31;7006562;28;20237;-81
2024/02/07 15:09:01;;;;;;;3.27;2.70;;;;;;;15.01;48.31;97764.91;7001383;28;20207;-80
2024/02/07 15:12:23;;;;;;;2.00;1.80;;;;;;;15.10;46.80;97747.06;7001348;28;20226;-82
2024/02/07 15:15:46;;;;;;;2.97;2.20;;;;;;;14.59;48.63;97771.28;7002482;28;20196;-82
2024/02/07 15:19:08;;;;;;;2.20;2.00;;;;;;;14.68;48.66;97753.47;7002913;28;20201;-82
2024/02/07 15:22:31;;;;;;;2.93;2.30;;;;;;;14.64;48.51;97741.50;6996848;28;20205;-82
2024/02/07 15:25:52;;;;;;;2.00;1.90;;;;;;;14.56;49.16;97734.63;7006928;28;20409;-80
2024/02/07 15:29:14;;;;;;;2.20;2.00;;;;;;;15.14;48.52;97731.91;6996814;28;20250;-82
2024/02/07 15:32:38;;;;;;;2.77;2.30;;;;;;;14.66;49.96;97739.34;6999864;28;20572;-82
2024/02/07 15:35:59;;;;;;;4.10;2.30;;;;;;;14.42;51.00;97730.69;7000933;28;20212;-80
2024/02/07 15:39:21;;;;;;;3.20;2.30;;;;;;;14.82;49.66;97735.69;7006484;28;20210;-81
2024/02/07 15:42:43;;;;;;;2.07;1.90;;;;;;;14.90;49.46;97744.19;7009070;28;20267;-81
2024/02/07 15:46:04;;;;;;;2.20;2.03;;;;;;;14.70;49.99;97752.13;6991881;28;20295;-80
2024/02/07 15:49:27;;;;;;;3.53;2.30;;;;;;;14.97;49.31;97730.38;7027288;28;20235;-82
2024/02/07 15:52:49;;;;;;;5.87;2.33;;;;;;;14.77;49.79;97747.34;7016357;28;20205;-81
2024/02/07 15:56:10;;;;;;;4.30;2.43;;;;;;;14.58;49.75;97721.63;7003318;28;20234;-81
2024/02/07 15:59:32;;;;;;;5.23;2.57;;;;;;;14.52;50.25;97727.28;7008500;28;20770;-83
2024/02/07 16:02:53;;;;;;;3.93;2.50;;;;;;;14.63;50.28;97729.00;7004311;28;20683;-81
2024/02/07 16:06:16;;;;;;;4.93;2.67;;;;;;;14.80;49.82;97714.25;7009170;28;20232;-82
2024/02/07 16:09:38;;;;;;;8.23;3.10;;;;;;;14.69;50.84;97726.06;6997752;28;20254;-82
2024/02/07 16:13:00;;;;;;;4.60;3.10;;;;;;;14.68;51.23;97731.78;7015830;28;20244;-81
2024/02/07 16:16:21;;;;;;;2.57;2.30;;;;;;;14.89;50.78;97720.03;7020541;28;20230;-82
2024/02/07 16:19:43;;;;;;;3.73;3.00;;;;;;;14.81;50.89;97724.00;7024709;28;20260;-82
2024/02/07 16:23:06;;;;;;;2.80;2.30;;;;;;;14.77;51.45;97714.78;6995083;28;20212;-83
2024/02/07 16:26:27;;;;;;;3.33;2.97;;;;;;;14.46;51.82;97707.41;7007634;28;20227;-83
2024/02/07 16:29:49;;;;;;;4.30;3.47;;;;;;;14.45;52.31;97718.53;7016215;28;20703;-82
2024/02/07 16:33:10;;;;;;;3.87;3.37;;;;;;;14.29;53.20;97717.53;7010419;28;20241;-82
2024/02/07 16:36:32;;;;;;;6.17;3.83;;;;;;;14.08;53.93;97725.66;7007267;28;20295;-82
2024/02/07 16:40:25;;;;;;;5.20;2.80;;;;;;;13.75;54.35;97723.88;7018768;28;20241;-82
2024/02/07 16:43:47;;;;;;;5.63;2.73;;;;;;;14.30;53.87;97713.75;6999721;28;20210;-83
2024/02/07 16:47:09;;;;;;;4.17;2.67;;;;;;;14.33;54.02;97715.16;7019560;28;20212;-83
2024/02/07 16:50:30;;;;;;;3.70;2.40;;;;;;;14.66;51.51;97699.47;7004390;28;20284;-84
2024/02/07 16:53:52;;;;;;;3.50;3.20;;;;;;;13.80;54.46;97705.00;7006768;28;20208;-84
2024/02/07 16:57:24;;;;;;;3.13;2.83;;;;;;;13.69;54.53;97653.66;7010195;28;20416;-85
2024/02/07 17:00:46;;;;;;;5.43;3.10;;;;;;;13.56;55.81;97644.03;6987462;28;20218;-84
2024/02/07 17:04:12;;;;;;;4.83;3.13;;;;;;;13.15;56.20;97693.25;7001715;28;20278;-84